sensor_id;sensor_type;location;lat;lon;timestamp;temperature;humidity
16999;DHT22;10211;49.476;11.010;2023-07-29T00:00:41;17.20;99.90
16999;DHT22;10211;49.476;11.010;2023-07-29T00:03:08;17.20;99.90
16999;DHT22;10211;49.476;11.010;2023-07-29T00:05:36;17.20;99.90
16999;DHT22;10211;49.476;11.010;2023-07-29T00:08:05;17.10;99.90
16999;DHT22;10211;49.476;11.010;2023-07-29T00:10:32;17.10;99.90
16999;DHT22;10211;49.476;11.010;2023-07-29T00:12:59;17.10;99.90
16999;DHT22;10211;49.476;11.010;2023-07-29T00:15:26;17.10;99.90
16999;DHT22;10211;49.476;11.010;2023-07-29T00:17:53;17.20;99.90
16999;DHT22;10211;49.476;11.010;2023-07-29T00:20:21;17.20;99.90
16999;DHT22;10211;49.476;11.010;2023-07-29T00:22:48;17.20;99.90
16999;DHT22;10211;49.476;11.010;2023-07-29T00:25:16;17.20;99.90
16999;DHT22;10211;49.476;11.010;2023-07-29T00:27:43;17.20;99.90
16999;DHT22;10211;49.476;11.010;2023-07-29T00:30:11;17.20;99.90
16999;DHT22;10211;49.476;11.010;2023-07-29T00:32:38;17.20;99.90
16999;DHT22;10211;49.476;11.010;2023-07-29T00:35:06;17.30;99.90
16999;DHT22;10211;49.476;11.010;2023-07-29T00:37:32;17.20;99.90
16999;DHT22;10211;49.476;11.010;2023-07-29T00:39:59;17.20;99.90
16999;DHT22;10211;49.476;11.010;2023-07-29T00:42:27;17.00;99.90
16999;DHT22;10211;49.476;11.010;2023-07-29T00:44:54;17.10;99.90
16999;DHT22;10211;49.476;11.010;2023-07-29T00:47:22;17.00;99.90
16999;DHT22;10211;49.476;11.010;2023-07-29T00:49:50;17.20;99.90
16999;DHT22;10211;49.476;11.010;2023-07-29T00:52:17;17.00;99.90
16999;DHT22;10211;49.476;11.010;2023-07-29T00:54:44;17.00;99.90
16999;DHT22;10211;49.476;11.010;2023-07-29T00:57:11;17.00;99.90
16999;DHT22;10211;49.476;11.010;2023-07-29T00:59:41;17.00;99.90
16999;DHT22;10211;49.476;11.010;2023-07-29T01:02:08;16.90;99.90
16999;DHT22;10211;49.476;11.010;2023-07-29T01:04:35;16.90;99.90
16999;DHT22;10211;49.476;11.010;2023-07-29T01:07:09;16.90;99.90
16999;DHT22;10211;49.476;11.010;2023-07-29T01:09:43;16.80;99.90
16999;DHT22;10211;49.476;11.010;2023-07-29T01:12:19;16.80;99.90
16999;DHT22;10211;49.476;11.010;2023-07-29T01:14:55;16.80;99.90
16999;DHT22;10211;49.476;11.010;2023-07-29T01:17:31;16.80;99.90
16999;DHT22;10211;49.476;11.010;2023-07-29T01:20:01;16.70;99.90
16999;DHT22;10211;49.476;11.010;2023-07-29T01:22:29;16.60;99.90
16999;DHT22;10211;49.476;11.010;2023-07-29T01:24:58;16.60;99.90
16999;DHT22;10211;49.476;11.010;2023-07-29T01:27:25;16.60;99.90
16999;DHT22;10211;49.476;11.010;2023-07-29T01:29:52;16.60;99.90
16999;DHT22;10211;49.476;11.010;2023-07-29T01:32:25;16.50;99.90
16999;DHT22;10211;49.476;11.010;2023-07-29T01:34:56;16.50;99.90
16999;DHT22;10211;49.476;11.010;2023-07-29T01:37:27;16.50;99.90
16999;DHT22;10211;49.476;11.010;2023-07-29T01:39:59;16.40;99.90
16999;DHT22;10211;49.476;11.010;2023-07-29T01:42:26;16.40;99.90
16999;DHT22;10211;49.476;11.010;2023-07-29T01:44:53;16.30;99.90
16999;DHT22;10211;49.476;11.010;2023-07-29T01:47:20;16.40;99.90
16999;DHT22;10211;49.476;11.010;2023-07-29T01:49:47;16.40;99.90
16999;DHT22;10211;49.476;11.010;2023-07-29T01:52:14;16.40;99.90
16999;DHT22;10211;49.476;11.010;2023-07-29T01:54:41;16.30;99.90
16999;DHT22;10211;49.476;11.010;2023-07-29T01:57:09;16.30;99.90
16999;DHT22;10211;49.476;11.010;2023-07-29T01:59:36;16.30;99.90
16999;DHT22;10211;49.476;11.010;2023-07-29T02:02:03;16.30;99.90
16999;DHT22;10211;49.476;11.010;2023-07-29T02:04:30;16.30;99.90
16999;DHT22;10211;49.476;11.010;2023-07-29T02:06:57;16.30;99.90
16999;DHT22;10211;49.476;11.010;2023-07-29T02:09:23;16.20;99.90
16999;DHT22;10211;49.476;11.010;2023-07-29T02:11:51;16.20;99.90
16999;DHT22;10211;49.476;11.010;2023-07-29T02:14:19;16.20;99.90
16999;DHT22;10211;49.476;11.010;2023-07-29T02:16:45;16.10;99.90
16999;DHT22;10211;49.476;11.010;2023-07-29T02:19:12;16.10;99.90
16999;DHT22;10211;49.476;11.010;2023-07-29T02:21:39;16.10;99.90
16999;DHT22;10211;49.476;11.010;2023-07-29T02:24:06;16.10;99.90
16999;DHT22;10211;49.476;11.010;2023-07-29T02:26:32;16.10;99.90
16999;DHT22;10211;49.476;11.010;2023-07-29T02:28:59;16.10;99.90
16999;DHT22;10211;49.476;11.010;2023-07-29T02:31:27;16.10;99.90
16999;DHT22;10211;49.476;11.010;2023-07-29T02:33:54;16.00;99.90
16999;DHT22;10211;49.476;11.010;2023-07-29T02:36:22;16.00;99.90
16999;DHT22;10211;49.476;11.010;2023-07-29T02:38:48;16.00;99.90
16999;DHT22;10211;49.476;11.010;2023-07-29T02:41:15;15.90;99.90
16999;DHT22;10211;49.476;11.010;2023-07-29T02:43:42;15.90;99.90
16999;DHT22;10211;49.476;11.010;2023-07-29T02:46:09;15.90;99.90
16999;DHT22;10211;49.476;11.010;2023-07-29T02:48:37;15.90;99.90
16999;DHT22;10211;49.476;11.010;2023-07-29T02:51:04;15.90;99.90
16999;DHT22;10211;49.476;11.010;2023-07-29T02:53:30;15.90;99.90
16999;DHT22;10211;49.476;11.010;2023-07-29T02:55:57;15.90;99.90
16999;DHT22;10211;49.476;11.010;2023-07-29T02:58:24;15.90;99.90
16999;DHT22;10211;49.476;11.010;2023-07-29T03:00:51;15.90;99.90
16999;DHT22;10211;49.476;11.010;2023-07-29T03:03:18;15.80;99.90
16999;DHT22;10211;49.476;11.010;2023-07-29T03:05:46;15.70;99.90
16999;DHT22;10211;49.476;11.010;2023-07-29T03:08:13;15.80;99.90
16999;DHT22;10211;49.476;11.010;2023-07-29T03:10:40;15.70;99.90
16999;DHT22;10211;49.476;11.010;2023-07-29T03:13:07;15.70;99.90
16999;DHT22;10211;49.476;11.010;2023-07-29T03:15:34;15.70;99.90
16999;DHT22;10211;49.476;11.010;2023-07-29T03:18:01;15.80;99.90
16999;DHT22;10211;49.476;11.010;2023-07-29T03:20:27;15.70;99.90
16999;DHT22;10211;49.476;11.010;2023-07-29T03:22:55;15.60;99.90
16999;DHT22;10211;49.476;11.010;2023-07-29T03:25:22;15.60;99.90
16999;DHT22;10211;49.476;11.010;2023-07-29T03:27:49;16.00;99.90
16999;DHT22;10211;49.476;11.010;2023-07-29T03:30:19;15.60;99.90
16999;DHT22;10211;49.476;11.010;2023-07-29T03:32:46;15.70;99.90
16999;DHT22;10211;49.476;11.010;2023-07-29T03:35:13;15.70;99.90
16999;DHT22;10211;49.476;11.010;2023-07-29T03:37:40;15.80;99.90
16999;DHT22;10211;49.476;11.010;2023-07-29T03:40:09;15.80;99.90
16999;DHT22;10211;49.476;11.010;2023-07-29T03:42:36;15.80;99.90
16999;DHT22;10211;49.476;11.010;2023-07-29T03:45:03;15.90;99.90
16999;DHT22;10211;49.476;11.010;2023-07-29T03:47:30;15.90;99.90
16999;DHT22;10211;49.476;11.010;2023-07-29T03:49:57;16.00;99.90
16999;DHT22;10211;49.476;11.010;2023-07-29T03:52:24;16.10;99.90
16999;DHT22;10211;49.476;11.010;2023-07-29T03:54:50;16.10;99.90
16999;DHT22;10211;49.476;11.010;2023-07-29T03:57:18;16.20;99.90
16999;DHT22;10211;49.476;11.010;2023-07-29T03:59:45;16.20;99.90
16999;DHT22;10211;49.476;11.010;2023-07-29T04:02:12;16.30;99.90
16999;DHT22;10211;49.476;11.010;2023-07-29T04:04:38;16.40;99.90
16999;DHT22;10211;49.476;11.010;2023-07-29T04:07:07;16.50;99.90
16999;DHT22;10211;49.476;11.010;2023-07-29T04:09:34;16.50;99.90
16999;DHT22;10211;49.476;11.010;2023-07-29T04:12:00;16.60;99.90
16999;DHT22;10211;49.476;11.010;2023-07-29T04:14:28;16.60;99.90
16999;DHT22;10211;49.476;11.010;2023-07-29T04:16:55;16.60;99.90
16999;DHT22;10211;49.476;11.010;2023-07-29T04:19:22;16.70;99.90
16999;DHT22;10211;49.476;11.010;2023-07-29T04:21:48;16.70;99.90
16999;DHT22;10211;49.476;11.010;2023-07-29T04:24:16;16.80;99.90
16999;DHT22;10211;49.476;11.010;2023-07-29T04:26:43;16.80;99.90
16999;DHT22;10211;49.476;11.010;2023-07-29T04:29:10;16.80;99.90
16999;DHT22;10211;49.476;11.010;2023-07-29T04:31:38;16.80;99.90
16999;DHT22;10211;49.476;11.010;2023-07-29T04:34:05;16.80;99.90
16999;DHT22;10211;49.476;11.010;2023-07-29T04:36:31;16.90;99.90
16999;DHT22;10211;49.476;11.010;2023-07-29T04:38:58;17.00;99.90
16999;DHT22;10211;49.476;11.010;2023-07-29T04:41:25;17.20;99.90
16999;DHT22;10211;49.476;11.010;2023-07-29T04:43:51;17.10;99.90
16999;DHT22;10211;49.476;11.010;2023-07-29T04:46:18;17.20;99.90
16999;DHT22;10211;49.476;11.010;2023-07-29T04:48:46;17.30;99.90
16999;DHT22;10211;49.476;11.010;2023-07-29T04:51:13;17.40;99.90
16999;DHT22;10211;49.476;11.010;2023-07-29T04:53:40;17.50;99.90
16999;DHT22;10211;49.476;11.010;2023-07-29T04:56:06;17.60;99.90
16999;DHT22;10211;49.476;11.010;2023-07-29T04:58:33;17.70;99.90
16999;DHT22;10211;49.476;11.010;2023-07-29T05:01:01;17.80;99.90
16999;DHT22;10211;49.476;11.010;2023-07-29T05:03:28;18.10;99.90
16999;DHT22;10211;49.476;11.010;2023-07-29T05:05:57;18.10;99.90
16999;DHT22;10211;49.476;11.010;2023-07-29T05:08:25;18.10;99.90
16999;DHT22;10211;49.476;11.010;2023-07-29T05:10:52;18.20;99.90
16999;DHT22;10211;49.476;11.010;2023-07-29T05:13:19;18.20;99.90
16999;DHT22;10211;49.476;11.010;2023-07-29T05:15:47;18.20;99.90
16999;DHT22;10211;49.476;11.010;2023-07-29T05:18:14;18.40;99.90
16999;DHT22;10211;49.476;11.010;2023-07-29T05:20:41;18.30;99.90
16999;DHT22;10211;49.476;11.010;2023-07-29T05:23:09;18.40;99.90
16999;DHT22;10211;49.476;11.010;2023-07-29T05:25:36;18.40;99.90
16999;DHT22;10211;49.476;11.010;2023-07-29T05:28:03;18.50;99.90
16999;DHT22;10211;49.476;11.010;2023-07-29T05:30:31;18.50;99.90
16999;DHT22;10211;49.476;11.010;2023-07-29T05:32:59;18.60;99.90
16999;DHT22;10211;49.476;11.010;2023-07-29T05:35:26;18.70;99.90
16999;DHT22;10211;49.476;11.010;2023-07-29T05:37:52;18.70;99.90
16999;DHT22;10211;49.476;11.010;2023-07-29T05:40:20;18.80;99.90
16999;DHT22;10211;49.476;11.010;2023-07-29T05:42:48;18.70;99.90
16999;DHT22;10211;49.476;11.010;2023-07-29T05:45:14;19.00;99.90
16999;DHT22;10211;49.476;11.010;2023-07-29T05:47:41;19.20;99.90
16999;DHT22;10211;49.476;11.010;2023-07-29T05:50:09;19.10;99.90
16999;DHT22;10211;49.476;11.010;2023-07-29T05:52:36;19.20;99.90
16999;DHT22;10211;49.476;11.010;2023-07-29T05:55:03;19.30;99.90
16999;DHT22;10211;49.476;11.010;2023-07-29T05:57:32;19.30;99.90
16999;DHT22;10211;49.476;11.010;2023-07-29T05:59:58;19.40;99.90
16999;DHT22;10211;49.476;11.010;2023-07-29T06:02:25;19.40;99.90
16999;DHT22;10211;49.476;11.010;2023-07-29T06:04:52;19.40;99.90
16999;DHT22;10211;49.476;11.010;2023-07-29T06:07:19;19.40;99.90
16999;DHT22;10211;49.476;11.010;2023-07-29T06:09:46;19.30;99.90
16999;DHT22;10211;49.476;11.010;2023-07-29T06:12:12;19.20;99.90
16999;DHT22;10211;49.476;11.010;2023-07-29T06:14:40;19.10;99.90
16999;DHT22;10211;49.476;11.010;2023-07-29T06:17:07;19.00;99.90
16999;DHT22;10211;49.476;11.010;2023-07-29T06:19:36;19.00;99.90
16999;DHT22;10211;49.476;11.010;2023-07-29T06:22:03;18.90;99.90
16999;DHT22;10211;49.476;11.010;2023-07-29T06:24:31;18.80;99.90
16999;DHT22;10211;49.476;11.010;2023-07-29T06:26:58;18.80;99.90
16999;DHT22;10211;49.476;11.010;2023-07-29T06:29:24;18.70;99.90
16999;DHT22;10211;49.476;11.010;2023-07-29T06:31:52;18.80;99.90
16999;DHT22;10211;49.476;11.010;2023-07-29T06:34:20;18.70;99.90
16999;DHT22;10211;49.476;11.010;2023-07-29T06:36:47;18.70;99.90
16999;DHT22;10211;49.476;11.010;2023-07-29T06:39:13;18.60;99.90
16999;DHT22;10211;49.476;11.010;2023-07-29T06:41:40;18.60;99.90
16999;DHT22;10211;49.476;11.010;2023-07-29T06:44:07;18.70;99.90
16999;DHT22;10211;49.476;11.010;2023-07-29T06:46:33;18.60;99.90
16999;DHT22;10211;49.476;11.010;2023-07-29T06:49:01;18.30;99.90
16999;DHT22;10211;49.476;11.010;2023-07-29T06:51:28;17.90;99.90
16999;DHT22;10211;49.476;11.010;2023-07-29T06:53:58;17.70;99.90
16999;DHT22;10211;49.476;11.010;2023-07-29T06:56:24;17.60;99.90
16999;DHT22;10211;49.476;11.010;2023-07-29T06:58:51;17.50;99.90
16999;DHT22;10211;49.476;11.010;2023-07-29T07:01:18;17.50;99.90
16999;DHT22;10211;49.476;11.010;2023-07-29T07:03:45;17.40;99.90
16999;DHT22;10211;49.476;11.010;2023-07-29T07:06:13;17.40;99.90
16999;DHT22;10211;49.476;11.010;2023-07-29T07:08:39;17.30;99.90
16999;DHT22;10211;49.476;11.010;2023-07-29T07:11:07;17.30;99.90
16999;DHT22;10211;49.476;11.010;2023-07-29T07:13:34;17.40;99.90
16999;DHT22;10211;49.476;11.010;2023-07-29T07:16:00;17.50;99.90
16999;DHT22;10211;49.476;11.010;2023-07-29T07:18:27;17.60;99.90
16999;DHT22;10211;49.476;11.010;2023-07-29T07:20:54;17.70;99.90
16999;DHT22;10211;49.476;11.010;2023-07-29T07:23:22;17.80;99.90
16999;DHT22;10211;49.476;11.010;2023-07-29T07:25:48;17.90;99.90
16999;DHT22;10211;49.476;11.010;2023-07-29T07:28:15;18.10;99.90
16999;DHT22;10211;49.476;11.010;2023-07-29T07:30:42;18.10;99.90
16999;DHT22;10211;49.476;11.010;2023-07-29T07:33:09;18.20;99.90
16999;DHT22;10211;49.476;11.010;2023-07-29T07:35:36;18.50;99.90
16999;DHT22;10211;49.476;11.010;2023-07-29T07:38:03;18.70;99.90
16999;DHT22;10211;49.476;11.010;2023-07-29T07:40:31;18.90;99.90
16999;DHT22;10211;49.476;11.010;2023-07-29T07:42:58;19.00;99.90
16999;DHT22;10211;49.476;11.010;2023-07-29T07:45:25;19.10;99.90
16999;DHT22;10211;49.476;11.010;2023-07-29T07:47:52;19.00;99.90
16999;DHT22;10211;49.476;11.010;2023-07-29T07:50:19;19.10;99.90
16999;DHT22;10211;49.476;11.010;2023-07-29T07:52:46;18.90;99.90
16999;DHT22;10211;49.476;11.010;2023-07-29T07:55:12;18.80;99.90
16999;DHT22;10211;49.476;11.010;2023-07-29T07:57:41;18.70;99.90
16999;DHT22;10211;49.476;11.010;2023-07-29T08:00:08;18.70;99.90
16999;DHT22;10211;49.476;11.010;2023-07-29T08:02:36;18.60;99.90
16999;DHT22;10211;49.476;11.010;2023-07-29T08:05:03;18.60;99.90
16999;DHT22;10211;49.476;11.010;2023-07-29T08:07:29;18.40;99.90
16999;DHT22;10211;49.476;11.010;2023-07-29T08:09:56;18.30;99.90
16999;DHT22;10211;49.476;11.010;2023-07-29T08:12:23;18.30;99.90
16999;DHT22;10211;49.476;11.010;2023-07-29T08:14:51;18.10;99.90
16999;DHT22;10211;49.476;11.010;2023-07-29T08:17:18;18.00;99.90
16999;DHT22;10211;49.476;11.010;2023-07-29T08:19:44;18.00;99.90
16999;DHT22;10211;49.476;11.010;2023-07-29T08:22:11;18.00;99.90
16999;DHT22;10211;49.476;11.010;2023-07-29T08:24:38;18.10;99.90
16999;DHT22;10211;49.476;11.010;2023-07-29T08:27:05;18.20;99.90
16999;DHT22;10211;49.476;11.010;2023-07-29T08:29:32;18.10;99.90
16999;DHT22;10211;49.476;11.010;2023-07-29T08:32:00;18.00;99.90
16999;DHT22;10211;49.476;11.010;2023-07-29T08:34:27;18.00;99.90
16999;DHT22;10211;49.476;11.010;2023-07-29T08:36:54;18.00;99.90
16999;DHT22;10211;49.476;11.010;2023-07-29T08:39:20;18.50;99.90
16999;DHT22;10211;49.476;11.010;2023-07-29T08:41:53;18.00;99.90
16999;DHT22;10211;49.476;11.010;2023-07-29T08:44:22;18.00;99.90
16999;DHT22;10211;49.476;11.010;2023-07-29T08:46:49;18.00;99.90
16999;DHT22;10211;49.476;11.010;2023-07-29T08:49:18;18.10;99.90
16999;DHT22;10211;49.476;11.010;2023-07-29T08:51:46;18.00;99.90
16999;DHT22;10211;49.476;11.010;2023-07-29T08:54:14;18.00;99.90
16999;DHT22;10211;49.476;11.010;2023-07-29T08:56:41;18.00;99.90
16999;DHT22;10211;49.476;11.010;2023-07-29T08:59:08;18.00;99.90
16999;DHT22;10211;49.476;11.010;2023-07-29T09:01:36;18.10;99.90
16999;DHT22;10211;49.476;11.010;2023-07-29T09:04:03;18.00;99.90
16999;DHT22;10211;49.476;11.010;2023-07-29T09:06:32;18.00;99.90
16999;DHT22;10211;49.476;11.010;2023-07-29T09:08:59;18.10;99.90
16999;DHT22;10211;49.476;11.010;2023-07-29T09:11:26;18.10;99.90
16999;DHT22;10211;49.476;11.010;2023-07-29T09:13:55;18.10;99.90
16999;DHT22;10211;49.476;11.010;2023-07-29T09:16:22;18.20;99.90
16999;DHT22;10211;49.476;11.010;2023-07-29T09:18:49;18.20;99.90
16999;DHT22;10211;49.476;11.010;2023-07-29T09:21:17;18.20;99.90
16999;DHT22;10211;49.476;11.010;2023-07-29T09:23:45;18.20;99.90
16999;DHT22;10211;49.476;11.010;2023-07-29T09:26:12;18.20;99.90
16999;DHT22;10211;49.476;11.010;2023-07-29T09:28:39;18.10;99.90
16999;DHT22;10211;49.476;11.010;2023-07-29T09:31:06;18.10;99.90
16999;DHT22;10211;49.476;11.010;2023-07-29T09:33:44;18.10;99.90
16999;DHT22;10211;49.476;11.010;2023-07-29T09:36:11;18.10;99.90
16999;DHT22;10211;49.476;11.010;2023-07-29T09:38:38;18.30;99.90
16999;DHT22;10211;49.476;11.010;2023-07-29T09:41:06;18.40;99.90
16999;DHT22;10211;49.476;11.010;2023-07-29T09:43:34;18.70;99.90
16999;DHT22;10211;49.476;11.010;2023-07-29T09:46:02;18.80;99.90
16999;DHT22;10211;49.476;11.010;2023-07-29T09:48:32;18.90;99.90
16999;DHT22;10211;49.476;11.010;2023-07-29T09:50:59;19.10;99.90
16999;DHT22;10211;49.476;11.010;2023-07-29T09:53:26;19.20;99.90
16999;DHT22;10211;49.476;11.010;2023-07-29T09:55:53;19.30;99.90
16999;DHT22;10211;49.476;11.010;2023-07-29T09:58:26;19.40;99.90
16999;DHT22;10211;49.476;11.010;2023-07-29T10:00:53;19.70;99.90
16999;DHT22;10211;49.476;11.010;2023-07-29T10:03:21;20.00;99.90
16999;DHT22;10211;49.476;11.010;2023-07-29T10:05:48;20.40;99.90
16999;DHT22;10211;49.476;11.010;2023-07-29T10:08:16;21.10;99.90
16999;DHT22;10211;49.476;11.010;2023-07-29T10:10:44;21.60;99.90
16999;DHT22;10211;49.476;11.010;2023-07-29T10:13:11;21.50;99.90
16999;DHT22;10211;49.476;11.010;2023-07-29T10:15:40;21.80;99.90
16999;DHT22;10211;49.476;11.010;2023-07-29T10:18:07;23.00;99.90
16999;DHT22;10211;49.476;11.010;2023-07-29T10:20:34;24.30;99.90
16999;DHT22;10211;49.476;11.010;2023-07-29T10:23:06;25.30;99.90
16999;DHT22;10211;49.476;11.010;2023-07-29T10:25:38;25.60;99.90
16999;DHT22;10211;49.476;11.010;2023-07-29T10:28:08;25.10;99.90
16999;DHT22;10211;49.476;11.010;2023-07-29T10:30:34;24.70;99.90
16999;DHT22;10211;49.476;11.010;2023-07-29T10:33:04;24.40;99.90
16999;DHT22;10211;49.476;11.010;2023-07-29T10:35:32;23.90;99.90
16999;DHT22;10211;49.476;11.010;2023-07-29T10:38:01;23.50;99.90
16999;DHT22;10211;49.476;11.010;2023-07-29T10:40:44;23.00;99.90
16999;DHT22;10211;49.476;11.010;2023-07-29T10:43:12;22.40;99.90
16999;DHT22;10211;49.476;11.010;2023-07-29T10:45:40;22.10;99.90
16999;DHT22;10211;49.476;11.010;2023-07-29T10:48:10;22.40;99.90
16999;DHT22;10211;49.476;11.010;2023-07-29T10:50:37;22.70;99.90
16999;DHT22;10211;49.476;11.010;2023-07-29T10:53:05;23.00;99.90
16999;DHT22;10211;49.476;11.010;2023-07-29T10:55:33;23.60;99.90
16999;DHT22;10211;49.476;11.010;2023-07-29T10:58:11;24.80;99.90
16999;DHT22;10211;49.476;11.010;2023-07-29T11:00:39;25.20;99.90
16999;DHT22;10211;49.476;11.010;2023-07-29T11:03:09;25.70;99.90
16999;DHT22;10211;49.476;11.010;2023-07-29T11:05:45;27.00;99.90
16999;DHT22;10211;49.476;11.010;2023-07-29T11:08:19;28.80;99.90
16999;DHT22;10211;49.476;11.010;2023-07-29T11:10:58;28.10;99.90
16999;DHT22;10211;49.476;11.010;2023-07-29T11:13:26;27.00;99.90
16999;DHT22;10211;49.476;11.010;2023-07-29T11:15:54;26.50;99.90
16999;DHT22;10211;49.476;11.010;2023-07-29T11:18:26;25.80;99.90
16999;DHT22;10211;49.476;11.010;2023-07-29T11:20:54;24.80;99.90
16999;DHT22;10211;49.476;11.010;2023-07-29T11:23:26;24.50;99.90
16999;DHT22;10211;49.476;11.010;2023-07-29T11:25:54;25.30;99.90
16999;DHT22;10211;49.476;11.010;2023-07-29T11:28:20;25.60;99.90
16999;DHT22;10211;49.476;11.010;2023-07-29T11:30:49;25.80;99.90
16999;DHT22;10211;49.476;11.010;2023-07-29T11:33:18;25.90;99.90
16999;DHT22;10211;49.476;11.010;2023-07-29T11:35:46;25.90;99.90
16999;DHT22;10211;49.476;11.010;2023-07-29T11:38:15;25.90;99.90
16999;DHT22;10211;49.476;11.010;2023-07-29T11:40:43;25.80;99.90
16999;DHT22;10211;49.476;11.010;2023-07-29T11:43:17;25.70;99.90
16999;DHT22;10211;49.476;11.010;2023-07-29T11:45:44;26.30;99.90
16999;DHT22;10211;49.476;11.010;2023-07-29T11:48:11;27.40;99.90
16999;DHT22;10211;49.476;11.010;2023-07-29T11:50:38;28.30;99.90
16999;DHT22;10211;49.476;11.010;2023-07-29T11:53:07;28.00;99.90
16999;DHT22;10211;49.476;11.010;2023-07-29T11:55:33;27.30;99.90
16999;DHT22;10211;49.476;11.010;2023-07-29T11:58:01;26.80;99.90
16999;DHT22;10211;49.476;11.010;2023-07-29T12:00:28;27.60;99.90
16999;DHT22;10211;49.476;11.010;2023-07-29T12:02:56;28.40;99.90
16999;DHT22;10211;49.476;11.010;2023-07-29T12:05:23;29.10;99.90
16999;DHT22;10211;49.476;11.010;2023-07-29T12:07:51;30.10;99.90
16999;DHT22;10211;49.476;11.010;2023-07-29T12:10:20;30.10;99.90
16999;DHT22;10211;49.476;11.010;2023-07-29T12:12:48;30.40;99.90
16999;DHT22;10211;49.476;11.010;2023-07-29T12:15:23;31.80;99.90
16999;DHT22;10211;49.476;11.010;2023-07-29T12:17:53;33.00;99.90
16999;DHT22;10211;49.476;11.010;2023-07-29T12:20:20;34.20;95.40
16999;DHT22;10211;49.476;11.010;2023-07-29T12:22:52;34.90;92.10
16999;DHT22;10211;49.476;11.010;2023-07-29T12:25:20;35.10;91.40
16999;DHT22;10211;49.476;11.010;2023-07-29T12:27:47;35.60;87.70
16999;DHT22;10211;49.476;11.010;2023-07-29T12:30:14;35.70;86.90
16999;DHT22;10211;49.476;11.010;2023-07-29T12:32:44;36.00;81.70
16999;DHT22;10211;49.476;11.010;2023-07-29T12:35:12;36.00;80.20
16999;DHT22;10211;49.476;11.010;2023-07-29T12:37:39;35.40;79.00
16999;DHT22;10211;49.476;11.010;2023-07-29T12:40:21;34.70;79.10
16999;DHT22;10211;49.476;11.010;2023-07-29T12:42:48;34.10;78.20
16999;DHT22;10211;49.476;11.010;2023-07-29T12:45:15;33.00;80.20
16999;DHT22;10211;49.476;11.010;2023-07-29T12:47:42;32.00;84.20
16999;DHT22;10211;49.476;11.010;2023-07-29T12:50:09;31.30;87.70
16999;DHT22;10211;49.476;11.010;2023-07-29T12:52:36;30.50;90.10
16999;DHT22;10211;49.476;11.010;2023-07-29T12:55:03;30.20;90.50
16999;DHT22;10211;49.476;11.010;2023-07-29T12:57:31;31.10;90.30
16999;DHT22;10211;49.476;11.010;2023-07-29T12:59:58;31.90;87.80
16999;DHT22;10211;49.476;11.010;2023-07-29T13:02:25;31.80;87.70
16999;DHT22;10211;49.476;11.010;2023-07-29T13:04:51;31.30;85.00
16999;DHT22;10211;49.476;11.010;2023-07-29T13:07:18;30.60;87.10
16999;DHT22;10211;49.476;11.010;2023-07-29T13:09:45;30.10;89.80
16999;DHT22;10211;49.476;11.010;2023-07-29T13:12:13;30.00;91.20
16999;DHT22;10211;49.476;11.010;2023-07-29T13:14:44;30.00;90.40
16999;DHT22;10211;49.476;11.010;2023-07-29T13:17:11;30.10;90.70
16999;DHT22;10211;49.476;11.010;2023-07-29T13:19:38;29.80;91.10
16999;DHT22;10211;49.476;11.010;2023-07-29T13:22:05;29.30;89.60
16999;DHT22;10211;49.476;11.010;2023-07-29T13:24:32;28.80;90.50
16999;DHT22;10211;49.476;11.010;2023-07-29T13:26:59;28.10;90.40
16999;DHT22;10211;49.476;11.010;2023-07-29T13:29:26;27.80;92.40
16999;DHT22;10211;49.476;11.010;2023-07-29T13:31:54;28.00;92.30
16999;DHT22;10211;49.476;11.010;2023-07-29T13:34:21;27.70;91.50
16999;DHT22;10211;49.476;11.010;2023-07-29T13:36:48;27.60;91.60
16999;DHT22;10211;49.476;11.010;2023-07-29T13:39:15;27.40;92.30
16999;DHT22;10211;49.476;11.010;2023-07-29T13:41:41;27.40;91.70
16999;DHT22;10211;49.476;11.010;2023-07-29T13:44:08;27.30;91.60
16999;DHT22;10211;49.476;11.010;2023-07-29T13:46:35;27.00;91.40
16999;DHT22;10211;49.476;11.010;2023-07-29T13:49:03;26.90;92.10
16999;DHT22;10211;49.476;11.010;2023-07-29T13:51:30;26.90;92.40
16999;DHT22;10211;49.476;11.010;2023-07-29T13:53:57;27.20;92.80
16999;DHT22;10211;49.476;11.010;2023-07-29T13:56:23;27.50;92.00
16999;DHT22;10211;49.476;11.010;2023-07-29T13:58:50;27.70;92.50
16999;DHT22;10211;49.476;11.010;2023-07-29T14:01:17;27.70;92.30
16999;DHT22;10211;49.476;11.010;2023-07-29T14:03:44;27.70;92.30
16999;DHT22;10211;49.476;11.010;2023-07-29T14:06:12;27.80;93.20
16999;DHT22;10211;49.476;11.010;2023-07-29T14:08:39;27.70;93.10
16999;DHT22;10211;49.476;11.010;2023-07-29T14:11:06;27.60;93.30
16999;DHT22;10211;49.476;11.010;2023-07-29T14:13:33;27.70;93.70
16999;DHT22;10211;49.476;11.010;2023-07-29T14:16:01;27.80;91.50
16999;DHT22;10211;49.476;11.010;2023-07-29T14:18:27;27.90;91.30
16999;DHT22;10211;49.476;11.010;2023-07-29T14:20:54;27.90;91.00
16999;DHT22;10211;49.476;11.010;2023-07-29T14:23:22;27.70;90.40
16999;DHT22;10211;49.476;11.010;2023-07-29T14:25:49;27.50;91.30
16999;DHT22;10211;49.476;11.010;2023-07-29T14:28:15;27.60;91.80
16999;DHT22;10211;49.476;11.010;2023-07-29T14:30:42;27.50;91.50
16999;DHT22;10211;49.476;11.010;2023-07-29T14:33:09;27.40;92.10
16999;DHT22;10211;49.476;11.010;2023-07-29T14:35:36;27.40;92.10
16999;DHT22;10211;49.476;11.010;2023-07-29T14:38:03;27.30;92.80
16999;DHT22;10211;49.476;11.010;2023-07-29T14:40:31;27.20;92.90
16999;DHT22;10211;49.476;11.010;2023-07-29T14:42:58;27.30;92.50
16999;DHT22;10211;49.476;11.010;2023-07-29T14:45:25;27.40;92.40
16999;DHT22;10211;49.476;11.010;2023-07-29T14:47:51;27.30;92.10
16999;DHT22;10211;49.476;11.010;2023-07-29T14:50:18;27.30;92.40
16999;DHT22;10211;49.476;11.010;2023-07-29T14:52:45;27.40;92.10
16999;DHT22;10211;49.476;11.010;2023-07-29T14:55:12;27.30;92.30
16999;DHT22;10211;49.476;11.010;2023-07-29T14:57:40;27.10;91.70
16999;DHT22;10211;49.476;11.010;2023-07-29T15:00:07;27.10;92.10
16999;DHT22;10211;49.476;11.010;2023-07-29T15:02:34;27.30;93.10
16999;DHT22;10211;49.476;11.010;2023-07-29T15:05:01;27.30;92.30
16999;DHT22;10211;49.476;11.010;2023-07-29T15:07:28;27.20;92.90
16999;DHT22;10211;49.476;11.010;2023-07-29T15:09:54;27.70;92.90
16999;DHT22;10211;49.476;11.010;2023-07-29T15:12:21;27.80;90.90
16999;DHT22;10211;49.476;11.010;2023-07-29T15:14:49;27.70;88.80
16999;DHT22;10211;49.476;11.010;2023-07-29T15:17:16;27.60;89.80